createdAt,value
2019-03-20T00:03:33.604Z,99.90
2019-03-20T00:06:16.464Z,99.90
2019-03-20T00:08:58.352Z,99.90
2019-03-20T00:11:41.153Z,99.90
2019-03-20T00:14:23.805Z,99.90
2019-03-20T00:17:06.231Z,99.90
2019-03-20T00:19:48.025Z,99.90
2019-03-20T00:22:30.168Z,99.90
2019-03-20T00:25:12.321Z,99.90
2019-03-20T00:27:54.716Z,99.90
2019-03-20T00:30:36.393Z,99.90
2019-03-20T00:33:18.821Z,99.90
2019-03-20T00:36:01.232Z,99.90
2019-03-20T00:38:43.227Z,99.90
2019-03-20T00:41:25.401Z,99.90
2019-03-20T00:44:07.742Z,99.90
2019-03-20T00:46:50.060Z,99.90
2019-03-20T00:49:32.144Z,99.90
2019-03-20T00:52:14.032Z,99.90
2019-03-20T00:54:56.144Z,99.90
2019-03-20T00:57:40.862Z,99.90
2019-03-20T01:00:22.043Z,99.90
2019-03-20T01:03:03.903Z,99.90
2019-03-20T01:05:46.924Z,99.90
2019-03-20T01:08:29.572Z,99.90
2019-03-20T01:11:11.652Z,99.90
2019-03-20T01:13:53.779Z,99.90
2019-03-20T01:16:35.920Z,99.90
2019-03-20T01:19:17.731Z,99.90
2019-03-20T01:21:59.499Z,99.90
2019-03-20T01:24:41.467Z,99.90
2019-03-20T01:27:23.436Z,99.90
2019-03-20T01:30:05.435Z,99.90
2019-03-20T01:32:47.332Z,99.90
2019-03-20T01:35:29.267Z,99.90
2019-03-20T01:38:11.135Z,99.90
2019-03-20T01:40:52.693Z,99.90
2019-03-20T01:43:35.056Z,99.90
2019-03-20T01:46:16.855Z,99.90
2019-03-20T01:48:58.644Z,99.90
2019-03-20T01:51:40.771Z,99.90
2019-03-20T01:54:22.555Z,99.90
2019-03-20T01:57:04.693Z,99.90
2019-03-20T01:59:46.463Z,99.90
2019-03-20T02:02:28.693Z,99.90
2019-03-20T02:05:10.767Z,99.90
2019-03-20T02:07:53.840Z,99.90
2019-03-20T02:10:36.047Z,99.90
2019-03-20T02:13:17.859Z,99.90
2019-03-20T02:15:59.985Z,99.90
2019-03-20T02:18:42.150Z,99.90
2019-03-20T02:21:23.912Z,99.90
2019-03-20T02:24:05.931Z,99.90
2019-03-20T02:26:47.896Z,99.90
2019-03-20T02:29:29.895Z,99.90
2019-03-20T02:32:11.798Z,99.90
2019-03-20T02:34:53.709Z,99.90
2019-03-20T02:37:35.760Z,99.90
2019-03-20T02:40:17.801Z,99.90
2019-03-20T02:42:59.764Z,99.90
2019-03-20T02:45:41.680Z,99.90
2019-03-20T02:48:25.549Z,99.90
2019-03-20T02:51:07.488Z,99.90
2019-03-20T02:53:49.406Z,99.90
2019-03-20T02:56:31.416Z,99.90
2019-03-20T02:59:13.388Z,99.90
2019-03-20T03:01:55.397Z,99.90
2019-03-20T03:04:37.529Z,99.90
2019-03-20T03:07:19.277Z,99.90
2019-03-20T03:10:01.377Z,99.90
2019-03-20T03:12:43.344Z,99.90
2019-03-20T03:15:25.201Z,99.90
2019-03-20T03:18:06.954Z,99.90
2019-03-20T03:20:34.534Z,99.90
2019-03-20T03:23:15.804Z,99.90
2019-03-20T03:25:56.974Z,99.90
2019-03-20T03:28:39.019Z,99.90
2019-03-20T03:31:21.038Z,99.90
2019-03-20T03:34:02.821Z,99.90
2019-03-20T03:36:44.939Z,99.90
2019-03-20T03:39:12.510Z,99.90
2019-03-20T03:41:54.416Z,99.90
2019-03-20T03:44:36.317Z,99.90
2019-03-20T03:47:18.065Z,99.90
2019-03-20T03:49:59.924Z,99.90
2019-03-20T03:52:41.935Z,99.90
2019-03-20T03:55:23.728Z,99.90
2019-03-20T03:58:06.816Z,99.90
2019-03-20T04:00:48.742Z,99.90
2019-03-20T04:03:30.822Z,99.90
2019-03-20T04:06:12.561Z,99.90
2019-03-20T04:08:54.428Z,99.90
2019-03-20T04:11:35.521Z,99.90
2019-03-20T04:14:17.581Z,99.90
2019-03-20T04:16:59.413Z,99.90
2019-03-20T04:19:42.281Z,99.90
2019-03-20T04:22:24.125Z,99.90
2019-03-20T04:25:05.908Z,99.90
2019-03-20T04:27:47.905Z,99.90
2019-03-20T04:30:29.702Z,99.90
2019-03-20T04:33:11.660Z,99.90
2019-03-20T04:35:53.564Z,99.90
2019-03-20T04:38:21.223Z,99.90
2019-03-20T04:41:03.433Z,99.90
2019-03-20T04:43:45.217Z,99.90
2019-03-20T04:46:28.204Z,99.90
2019-03-20T04:49:10.244Z,99.90
2019-03-20T04:51:51.401Z,99.90
2019-03-20T04:54:33.319Z,99.90
2019-03-20T04:57:15.137Z,99.90
2019-03-20T04:59:57.275Z,99.90
2019-03-20T05:02:39.327Z,99.90
2019-03-20T05:05:21.319Z,99.90
2019-03-20T05:08:03.336Z,99.90
2019-03-20T05:10:45.258Z,99.90
2019-03-20T05:13:27.265Z,99.90
2019-03-20T05:16:10.312Z,99.90
2019-03-20T05:18:52.281Z,99.90
2019-03-20T05:21:34.440Z,99.90
2019-03-20T05:24:16.395Z,99.90
2019-03-20T05:26:58.327Z,99.90
2019-03-20T05:29:40.315Z,99.90
2019-03-20T05:32:22.172Z,99.90
2019-03-20T05:35:04.001Z,99.90
2019-03-20T05:37:45.993Z,99.90
2019-03-20T05:40:27.779Z,99.90
2019-03-20T05:43:09.673Z,99.90
2019-03-20T05:45:51.723Z,99.90
2019-03-20T05:48:33.382Z,99.90
2019-03-20T05:51:15.355Z,99.90
2019-03-20T05:53:57.196Z,99.90
2019-03-20T05:56:40.044Z,99.90
2019-03-20T05:59:22.132Z,99.90
2019-03-20T06:02:03.868Z,99.90
2019-03-20T06:04:47.812Z,99.90
2019-03-20T06:07:29.824Z,99.90
2019-03-20T06:10:11.769Z,99.90
2019-03-20T06:12:53.724Z,99.90
2019-03-20T06:15:35.688Z,99.90
2019-03-20T06:18:17.584Z,99.90
2019-03-20T06:21:00.425Z,99.90
2019-03-20T06:23:42.320Z,99.90
2019-03-20T06:26:24.170Z,99.90
2019-03-20T06:29:06.116Z,99.90
2019-03-20T06:31:48.048Z,99.90
2019-03-20T06:34:29.884Z,99.90
2019-03-20T06:36:57.576Z,99.90
2019-03-20T06:39:39.549Z,99.90
2019-03-20T06:42:21.389Z,99.90
2019-03-20T06:45:05.176Z,99.90
2019-03-20T06:47:47.181Z,99.90
2019-03-20T06:50:29.170Z,99.90
2019-03-20T06:53:11.213Z,99.90
2019-03-20T06:55:53.204Z,99.90
2019-03-20T06:58:35.088Z,99.90
2019-03-20T07:01:16.807Z,99.90
2019-03-20T07:03:58.750Z,99.90
2019-03-20T07:06:40.797Z,99.90
2019-03-20T07:09:22.823Z,99.90
2019-03-20T07:12:04.788Z,99.90
2019-03-20T07:14:45.980Z,99.90
2019-03-20T07:17:27.828Z,99.90
2019-03-20T07:20:09.791Z,99.90
2019-03-20T07:22:51.964Z,99.90
2019-03-20T07:25:34.220Z,99.90
2019-03-20T07:28:16.128Z,99.90
2019-03-20T07:30:58.147Z,99.90
2019-03-20T07:33:39.965Z,99.90
2019-03-20T07:36:41.084Z,99.90
2019-03-20T07:39:22.160Z,99.90
2019-03-20T07:42:04.020Z,99.90
2019-03-20T07:44:46.200Z,99.90
2019-03-20T07:47:28.248Z,99.90
2019-03-20T07:50:10.244Z,99.90
2019-03-20T07:52:52.120Z,99.90
2019-03-20T07:55:34.181Z,99.90
2019-03-20T07:58:16.116Z,99.90
2019-03-20T08:00:58.110Z,99.90
2019-03-20T08:03:39.141Z,99.90
2019-03-20T08:06:20.412Z,99.90
2019-03-20T08:09:02.331Z,99.90
2019-03-20T08:11:44.311Z,99.90
2019-03-20T08:14:26.176Z,99.90
2019-03-20T08:17:07.403Z,99.90
2019-03-20T08:19:49.203Z,99.90
2019-03-20T08:22:33.040Z,99.90
2019-03-20T08:25:15.865Z,99.90
2019-03-20T08:27:57.707Z,99.90
2019-03-20T08:30:39.668Z,99.90
2019-03-20T08:33:21.578Z,99.90
2019-03-20T08:36:03.444Z,99.90
2019-03-20T08:38:45.194Z,99.90
2019-03-20T08:41:27.095Z,99.90
2019-03-20T08:44:08.927Z,99.90
2019-03-20T08:46:50.887Z,99.90
2019-03-20T08:49:32.926Z,99.90
2019-03-20T08:52:15.088Z,99.90
2019-03-20T08:54:56.968Z,99.90
2019-03-20T08:57:38.981Z,99.90
2019-03-20T09:00:20.874Z,99.90
2019-03-20T09:03:03.005Z,99.90
2019-03-20T09:05:44.677Z,99.90
2019-03-20T09:08:29.820Z,99.90
2019-03-20T09:11:10.561Z,99.90
2019-03-20T09:13:52.644Z,99.90
2019-03-20T09:16:34.388Z,99.90
2019-03-20T09:19:16.283Z,99.90
2019-03-20T09:21:58.116Z,99.90
2019-03-20T09:24:40.339Z,99.90
2019-03-20T09:27:22.233Z,99.90
2019-03-20T09:30:04.407Z,99.90
2019-03-20T09:32:46.165Z,99.90
2019-03-20T09:35:28.113Z,99.90
2019-03-20T09:38:09.123Z,99.90
2019-03-20T09:40:52.019Z,99.90
2019-03-20T09:43:33.989Z,99.90
2019-03-20T09:46:15.944Z,99.90
2019-03-20T09:48:57.761Z,99.90
2019-03-20T09:51:39.549Z,99.90
2019-03-20T09:54:21.510Z,99.90
2019-03-20T09:57:03.358Z,99.90
2019-03-20T09:59:46.025Z,99.90
2019-03-20T10:02:28.064Z,99.90
2019-03-20T10:05:09.162Z,98.70
2019-03-20T10:07:51.199Z,96.80
2019-03-20T10:10:34.246Z,99.80
2019-03-20T10:13:16.144Z,98.60
2019-03-20T10:16:00.000Z,93.90
2019-03-20T10:18:41.985Z,90.30
2019-03-20T10:21:23.757Z,97.80
2019-03-20T10:24:05.628Z,96.60
2019-03-20T10:26:47.604Z,97.80
2019-03-20T10:29:29.726Z,97.50
2019-03-20T10:32:11.595Z,96.60
2019-03-20T10:34:53.632Z,97.60
2019-03-20T10:37:35.457Z,97.40
2019-03-20T10:40:17.536Z,98.60
2019-03-20T10:42:59.389Z,94.60
2019-03-20T10:45:41.247Z,94.90
2019-03-20T10:48:08.791Z,97.30
2019-03-20T10:50:50.896Z,99.40
2019-03-20T10:53:33.011Z,96.50
2019-03-20T10:56:14.924Z,96.70
2019-03-20T10:58:56.812Z,94.60
2019-03-20T11:01:42.770Z,95.80
2019-03-20T11:04:23.737Z,96.80
2019-03-20T11:07:05.545Z,92.80
2019-03-20T11:09:33.243Z,96.50
2019-03-20T11:12:15.291Z,91.40
2019-03-20T11:14:57.186Z,91.80
2019-03-20T11:17:39.139Z,92.20
2019-03-20T11:20:21.035Z,93.30
2019-03-20T11:23:02.805Z,93.10
2019-03-20T11:25:44.779Z,89.60
2019-03-20T11:28:26.919Z,90.30
2019-03-20T11:31:08.943Z,86.40
2019-03-20T11:33:51.015Z,91.40
2019-03-20T11:36:33.212Z,90.70
2019-03-20T11:39:15.203Z,78.30
2019-03-20T11:41:57.011Z,78.80
2019-03-20T11:44:38.940Z,72.30
2019-03-20T11:47:20.776Z,81.10
2019-03-20T11:49:48.381Z,84.60
2019-03-20T11:52:38.457Z,74.40
2019-03-20T11:55:20.443Z,69.30
2019-03-20T11:58:02.314Z,78.40
2019-03-20T12:00:44.235Z,79.60
2019-03-20T12:03:26.209Z,74.50
2019-03-20T12:06:08.207Z,68.10
2019-03-20T12:08:49.282Z,64.50
2019-03-20T12:11:31.311Z,67.60
2019-03-20T12:14:13.488Z,64.40
2019-03-20T12:16:55.331Z,73.80
2019-03-20T12:19:44.893Z,62.70
2019-03-20T12:22:20.317Z,80.00
2019-03-20T12:25:02.221Z,78.90
2019-03-20T12:27:44.328Z,75.80
2019-03-20T12:30:26.321Z,66.00
2019-03-20T12:33:09.194Z,65.90
2019-03-20T12:35:51.113Z,70.80
2019-03-20T12:38:33.127Z,76.90
2019-03-20T12:41:15.004Z,72.90
2019-03-20T12:43:57.012Z,75.20
2019-03-20T12:46:41.740Z,71.90
2019-03-20T12:49:22.038Z,76.70
2019-03-20T12:52:04.741Z,68.40
2019-03-20T12:54:46.749Z,77.10
2019-03-20T12:57:28.524Z,69.60
2019-03-20T13:00:10.458Z,64.90
2019-03-20T13:02:52.200Z,73.20
2019-03-20T13:05:34.008Z,69.30
2019-03-20T13:08:15.952Z,69.70
2019-03-20T13:10:57.976Z,69.80
2019-03-20T13:13:39.687Z,63.40
2019-03-20T13:16:22.408Z,67.10
2019-03-20T13:19:04.332Z,65.30
2019-03-20T13:24:30.648Z,54.90
2019-03-20T13:27:12.639Z,60.50
2019-03-20T13:29:54.663Z,64.50
2019-03-20T13:32:36.729Z,60.40
2019-03-20T13:35:18.763Z,64.50
2019-03-20T13:38:00.836Z,60.30
2019-03-20T13:40:42.655Z,64.40
2019-03-20T13:43:24.742Z,66.00
2019-03-20T13:46:06.704Z,60.10
2019-03-20T13:49:07.975Z,62.60
2019-03-20T13:51:50.087Z,54.70
2019-03-20T13:54:31.032Z,57.70
2019-03-20T13:57:12.880Z,63.40
2019-03-20T13:59:54.939Z,68.90
2019-03-20T14:02:36.776Z,64.60
2019-03-20T14:05:18.788Z,62.50
2019-03-20T14:07:59.679Z,58.80
2019-03-20T14:10:50.323Z,61.00
2019-03-20T14:13:25.675Z,60.30
2019-03-20T14:16:07.577Z,58.70
2019-03-20T14:18:49.514Z,68.30
2019-03-20T14:21:31.518Z,67.90
2019-03-20T14:24:13.431Z,63.10
2019-03-20T14:26:54.577Z,66.10
2019-03-20T14:29:36.607Z,60.90
2019-03-20T14:32:18.508Z,64.10
2019-03-20T14:35:00.423Z,62.80
2019-03-20T14:37:42.280Z,57.80
2019-03-20T14:40:31.658Z,56.00
2019-03-20T14:43:08.465Z,62.90
2019-03-20T14:45:50.353Z,62.50
2019-03-20T14:48:31.313Z,63.10
2019-03-20T14:51:13.284Z,62.60
2019-03-20T14:53:55.287Z,57.20
2019-03-20T14:56:37.251Z,59.40
2019-03-20T14:59:18.324Z,64.30
2019-03-20T15:01:59.484Z,67.60
2019-03-20T15:04:41.571Z,66.70
2019-03-20T15:07:23.541Z,62.30
2019-03-20T15:10:05.407Z,54.10
2019-03-20T15:12:47.319Z,57.50
2019-03-20T15:15:31.271Z,65.90
2019-03-20T15:18:13.303Z,63.50
2019-03-20T15:20:55.299Z,69.80
2019-03-20T15:23:38.129Z,72.60
2019-03-20T15:26:19.875Z,67.30
2019-03-20T15:29:02.052Z,66.30
2019-03-20T15:31:43.995Z,66.20
2019-03-20T15:34:27.787Z,71.30
2019-03-20T15:37:09.965Z,72.50
2019-03-20T15:39:52.160Z,78.90
2019-03-20T15:42:33.911Z,77.20
2019-03-20T15:45:15.961Z,76.90
2019-03-20T15:47:58.845Z,80.10
2019-03-20T15:50:40.005Z,77.10
2019-03-20T15:53:21.922Z,78.60
2019-03-20T15:56:04.099Z,79.30
2019-03-20T15:58:46.169Z,83.60
2019-03-20T16:01:28.256Z,83.80
2019-03-20T16:04:10.618Z,86.10
2019-03-20T16:06:52.579Z,84.30
2019-03-20T16:09:34.821Z,79.60
2019-03-20T16:12:16.671Z,88.60
2019-03-20T16:14:58.668Z,90.90
2019-03-20T16:17:40.539Z,90.40
2019-03-20T16:20:22.316Z,89.00
2019-03-20T16:23:04.162Z,88.20
2019-03-20T16:25:47.104Z,84.10
2019-03-20T16:28:30.977Z,79.50
2019-03-20T16:31:12.735Z,88.50
2019-03-20T16:33:55.843Z,90.50
2019-03-20T16:36:37.713Z,89.60
2019-03-20T16:39:19.478Z,87.80
2019-03-20T16:42:01.420Z,90.80
2019-03-20T16:44:43.548Z,91.90
2019-03-20T16:47:25.384Z,93.50
2019-03-20T16:50:07.380Z,91.50
2019-03-20T16:52:49.248Z,94.50
2019-03-20T16:55:31.149Z,97.70
2019-03-20T16:58:13.156Z,98.20
2019-03-20T17:00:55.056Z,97.90
2019-03-20T17:03:37.013Z,98.50
2019-03-20T17:06:19.007Z,98.50
2019-03-20T17:09:01.026Z,99.20
2019-03-20T17:11:45.048Z,99.90
2019-03-20T17:14:27.000Z,99.90
2019-03-20T17:17:08.996Z,99.90
2019-03-20T17:19:50.970Z,99.90
2019-03-20T17:22:41.712Z,99.90
2019-03-20T17:25:16.801Z,99.90
2019-03-20T17:27:58.635Z,99.90
2019-03-20T17:30:40.479Z,99.90
2019-03-20T17:33:22.258Z,99.90
2019-03-20T17:36:04.186Z,99.90
2019-03-20T17:38:45.879Z,99.90
2019-03-20T17:41:36.415Z,99.90
2019-03-20T17:44:11.824Z,99.90
2019-03-20T17:46:53.661Z,99.90
2019-03-20T17:49:35.588Z,99.90
2019-03-20T17:52:17.633Z,99.90
2019-03-20T17:54:59.600Z,99.90
2019-03-20T17:57:41.497Z,99.90
2019-03-20T18:00:28.423Z,99.90
2019-03-20T18:03:10.360Z,99.90
2019-03-20T18:05:52.311Z,99.90
2019-03-20T18:08:34.333Z,99.90
2019-03-20T18:11:16.231Z,99.90
2019-03-20T18:13:58.067Z,99.90
2019-03-20T18:16:39.896Z,99.90
2019-03-20T18:19:21.714Z,99.90
2019-03-20T18:22:03.620Z,99.90
2019-03-20T18:24:45.702Z,99.90
2019-03-20T18:27:27.497Z,99.90
2019-03-20T18:30:09.439Z,99.90
2019-03-20T18:32:51.318Z,99.90
2019-03-20T18:35:33.226Z,99.90
2019-03-20T18:38:15.076Z,99.90
2019-03-20T18:40:56.847Z,99.90
2019-03-20T18:43:38.820Z,99.90
2019-03-20T18:46:19.836Z,99.90
2019-03-20T18:49:02.931Z,99.90
2019-03-20T18:51:44.793Z,99.90
2019-03-20T18:54:26.660Z,99.90
2019-03-20T18:57:08.672Z,99.90
2019-03-20T18:59:50.364Z,99.90
2019-03-20T19:02:32.311Z,99.90
2019-03-20T19:05:14.243Z,99.90
2019-03-20T19:07:56.243Z,99.90
2019-03-20T19:10:37.956Z,99.90
2019-03-20T19:13:20.029Z,99.90
2019-03-20T19:16:01.724Z,99.90
2019-03-20T19:18:43.607Z,99.90
2019-03-20T19:21:25.577Z,99.90
2019-03-20T19:24:07.603Z,99.90
2019-03-20T19:26:49.315Z,99.90
2019-03-20T19:29:31.271Z,99.90
2019-03-20T19:35:41.847Z,99.90
2019-03-20T19:41:27.108Z,99.90
2019-03-20T19:44:09.076Z,99.90
2019-03-20T19:46:51.064Z,99.90
2019-03-20T19:49:33.197Z,99.90
2019-03-20T19:52:15.164Z,99.90
2019-03-20T19:54:57.089Z,99.90
2019-03-20T19:57:41.082Z,99.90
2019-03-20T20:00:23.082Z,99.90
2019-03-20T20:03:04.886Z,99.90
2019-03-20T20:05:46.943Z,99.90
2019-03-20T20:08:28.913Z,99.90
2019-03-20T20:11:10.736Z,99.90
2019-03-20T20:13:53.033Z,99.90
2019-03-20T20:16:34.804Z,99.90
2019-03-20T20:19:02.372Z,99.90
2019-03-20T20:21:52.484Z,99.90
2019-03-20T20:24:34.745Z,99.90
2019-03-20T20:27:16.877Z,99.90
2019-03-20T20:29:59.108Z,99.90
2019-03-20T20:32:40.884Z,99.90
2019-03-20T20:35:22.147Z,99.90
2019-03-20T20:38:03.132Z,99.90
2019-03-20T20:40:45.055Z,99.90
2019-03-20T20:43:26.965Z,99.90
2019-03-20T20:46:08.711Z,99.90
2019-03-20T20:48:50.629Z,99.90
2019-03-20T20:51:32.588Z,99.90
2019-03-20T20:54:14.579Z,99.90
2019-03-20T20:56:56.597Z,99.90
2019-03-20T20:59:38.479Z,99.90
2019-03-20T21:02:20.581Z,99.90
2019-03-20T21:05:02.276Z,99.90
2019-03-20T21:07:45.083Z,99.90
2019-03-20T21:10:26.883Z,99.90
2019-03-20T21:13:08.875Z,99.90
2019-03-20T21:15:50.831Z,99.90
2019-03-20T21:18:32.609Z,99.90
2019-03-20T21:21:14.607Z,99.90
2019-03-20T21:23:56.428Z,99.90
2019-03-20T21:26:38.411Z,99.90
2019-03-20T21:29:20.387Z,99.90
2019-03-20T21:32:02.561Z,99.90
2019-03-20T21:34:44.304Z,99.90
2019-03-20T21:37:26.145Z,99.90
2019-03-20T21:40:07.979Z,99.90
2019-03-20T21:42:50.040Z,99.90
2019-03-20T21:45:31.871Z,99.90
2019-03-20T21:48:13.755Z,99.90
2019-03-20T21:50:55.717Z,99.90
2019-03-20T21:53:37.837Z,99.90
2019-03-20T21:56:20.041Z,99.90
2019-03-20T21:59:01.973Z,99.90
2019-03-20T22:01:44.011Z,99.90
2019-03-20T22:04:25.996Z,99.90
2019-03-20T22:07:07.735Z,99.90
2019-03-20T22:09:49.984Z,99.90
2019-03-20T22:12:32.977Z,99.90
2019-03-20T22:15:14.558Z,99.90
2019-03-20T22:17:57.036Z,99.90
2019-03-20T22:20:39.049Z,99.90
2019-03-20T22:23:21.020Z,99.90
2019-03-20T22:26:02.861Z,99.90
2019-03-20T22:28:44.811Z,99.90
2019-03-20T22:31:26.950Z,99.90
2019-03-20T22:34:08.825Z,99.90
2019-03-20T22:36:50.627Z,99.90
2019-03-20T22:39:32.526Z,99.90
2019-03-20T22:42:14.810Z,99.90
2019-03-20T22:44:57.595Z,99.90
2019-03-20T22:47:38.603Z,99.90
2019-03-20T22:50:20.542Z,99.90
2019-03-20T22:53:02.360Z,99.90
2019-03-20T22:55:44.388Z,99.90
2019-03-20T22:58:26.439Z,99.90
2019-03-20T23:01:27.584Z,99.90
2019-03-20T23:04:09.396Z,99.90
2019-03-20T23:06:51.361Z,99.90
2019-03-20T23:09:32.428Z,99.90
2019-03-20T23:12:17.906Z,99.90
2019-03-20T23:15:00.497Z,99.90
2019-03-20T23:17:42.535Z,99.90
2019-03-20T23:20:24.638Z,99.90
2019-03-20T23:23:06.469Z,99.90
2019-03-20T23:25:48.272Z,99.90
2019-03-20T23:28:30.123Z,99.90
2019-03-20T23:31:12.005Z,99.90
2019-03-20T23:33:53.888Z,99.90
2019-03-20T23:36:35.927Z,99.90
2019-03-20T23:39:18.952Z,99.90
2019-03-20T23:41:59.964Z,99.90
2019-03-20T23:44:41.929Z,99.90
2019-03-20T23:47:43.121Z,99.90
2019-03-20T23:50:24.181Z,99.90
2019-03-20T23:53:06.079Z,99.90
2019-03-20T23:55:47.959Z,99.90
2019-03-20T23:58:29.823Z,99.90
